Time;durP1;ratioP1;P1;durP2;ratioP2;P2;SDS_P1;SDS_P2;PMS_P1;PMS_P2;Temp;Humidity;BMP_temperature;BMP_pressure;BME280_temperature;BME280_humidity;BME280_pressure;Samples;Min_cycle;Max_cycle;Signal;HPM_P1;HPM_P2
2023/05/30 00:00:33;;;;;;;6.00;3.50;;;17.30;99.90;;;;;;6068172;23;20382;-85
2023/05/30 00:03:00;;;;;;;6.60;3.70;;;17.20;99.90;;;;;;6066493;23;20370;-85
2023/05/30 00:05:27;;;;;;;5.00;3.92;;;17.20;97.20;;;;;;6067179;23;20780;-85
2023/05/30 00:07:55;;;;;;;4.07;3.40;;;17.20;95.00;;;;;;6066709;23;20460;-85
2023/05/30 00:10:22;;;;;;;4.50;3.55;;;17.30;94.30;;;;;;6067107;23;20405;-86
2023/05/30 00:12:49;;;;;;;4.20;3.75;;;17.30;94.10;;;;;;6091723;23;20445;-87
2023/05/30 00:15:18;;;;;;;5.13;3.38;;;17.40;92.90;;;;;;6064058;23;20462;-86
2023/05/30 00:17:45;;;;;;;5.05;3.40;;;17.50;92.30;;;;;;6064091;23;20379;-83
2023/05/30 00:20:12;;;;;;;5.15;3.35;;;17.50;92.40;;;;;;6062174;23;20375;-84
2023/05/30 00:22:41;;;;;;;4.43;3.38;;;17.50;91.20;;;;;;6062359;23;20402;-83
2023/05/30 00:25:09;;;;;;;3.87;3.27;;;17.60;90.90;;;;;;6061751;23;20463;-83
2023/05/30 00:27:36;;;;;;;4.18;2.92;;;17.60;91.30;;;;;;6062485;23;20391;-84
2023/05/30 00:30:04;;;;;;;3.47;3.08;;;17.60;91.40;;;;;;6061047;23;20400;-84
2023/05/30 00:32:31;;;;;;;4.20;3.38;;;17.60;92.00;;;;;;6062168;23;20454;-84
2023/05/30 00:34:57;;;;;;;4.45;2.83;;;17.50;92.00;;;;;;6062702;23;20608;-84
2023/05/30 00:37:25;;;;;;;4.20;3.00;;;17.50;92.20;;;;;;6062442;23;20415;-85
2023/05/30 00:39:52;;;;;;;4.90;3.13;;;17.50;92.80;;;;;;6061286;23;20741;-84
2023/05/30 00:42:19;;;;;;;4.40;3.37;;;17.50;92.00;;;;;;6062694;23;20394;-84
2023/05/30 00:44:46;;;;;;;3.83;3.47;;;17.40;91.50;;;;;;6061322;23;20403;-83
2023/05/30 00:47:14;;;;;;;4.55;3.25;;;17.60;91.10;;;;;;6063557;23;20382;-84
2023/05/30 00:49:41;;;;;;;4.43;3.25;;;17.60;90.30;;;;;;6062536;23;20466;-85
2023/05/30 00:52:08;;;;;;;4.93;3.63;;;17.70;90.10;;;;;;6061257;23;20386;-84
2023/05/30 00:54:37;;;;;;;4.97;3.38;;;17.70;88.60;;;;;;6063538;23;20390;-86
2023/05/30 00:57:05;;;;;;;4.68;3.35;;;17.80;88.20;;;;;;6061313;23;20381;-86
2023/05/30 00:59:32;;;;;;;4.82;3.60;;;17.80;88.70;;;;;;6065059;23;20398;-85
2023/05/30 01:01:59;;;;;;;5.32;3.08;;;17.90;87.70;;;;;;6061292;23;20383;-80
2023/05/30 03:02:09;;;;;;;5.85;3.63;;;18.20;80.00;;;;;;6049002;23;20462;-78
2023/05/30 03:04:36;;;;;;;4.22;3.33;;;18.20;81.30;;;;;;6053874;23;20377;-78
2023/05/30 03:07:03;;;;;;;4.28;3.60;;;18.10;82.00;;;;;;6030253;23;20763;-78
2023/05/30 03:09:30;;;;;;;4.65;3.45;;;18.10;81.50;;;;;;6030516;23;20387;-77
2023/05/30 03:11:57;;;;;;;3.83;3.22;;;18.10;80.90;;;;;;6030239;23;20711;-78
2023/05/30 03:14:24;;;;;;;4.45;3.22;;;18.10;81.30;;;;;;6032213;23;20851;-77
2023/05/30 03:16:51;;;;;;;3.78;3.00;;;18.10;81.30;;;;;;6030280;23;20388;-78
2023/05/30 03:19:18;;;;;;;3.75;3.10;;;18.10;81.80;;;;;;6030505;23;20384;-77
2023/05/30 03:21:45;;;;;;;3.88;3.20;;;18.00;81.20;;;;;;6030403;23;20469;-80
2023/05/30 03:24:12;;;;;;;4.07;3.58;;;18.00;82.20;;;;;;6032499;23;20692;-78
2023/05/30 03:26:39;;;;;;;4.20;3.33;;;17.90;83.40;;;;;;6032558;23;20384;-77
2023/05/30 03:29:07;;;;;;;3.90;3.30;;;17.90;83.00;;;;;;6032097;23;20807;-77
2023/05/30 03:31:35;;;;;;;4.28;3.25;;;17.90;83.00;;;;;;6032244;23;20440;-77
2023/05/30 03:34:02;;;;;;;3.80;3.47;;;17.90;82.70;;;;;;6032204;23;20460;-77
2023/05/30 03:36:29;;;;;;;4.00;3.23;;;17.80;83.70;;;;;;6032384;23;20467;-77
2023/05/30 03:38:56;;;;;;;5.63;3.47;;;17.80;83.10;;;;;;6031651;23;20735;-78
2023/05/30 03:41:23;;;;;;;4.87;3.57;;;17.80;84.00;;;;;;6032311;23;20787;-77
2023/05/30 03:43:50;;;;;;;6.03;3.90;;;17.80;83.90;;;;;;6031810;23;20384;-78
2023/05/30 03:46:19;;;;;;;4.68;3.92;;;17.70;84.70;;;;;;6032108;23;20385;-77
2023/05/30 03:48:47;;;;;;;3.78;3.33;;;17.70;85.20;;;;;;6032286;23;20388;-77
2023/05/30 03:51:14;;;;;;;4.50;3.83;;;17.70;83.90;;;;;;6055441;23;20870;-78
2023/05/30 03:53:44;;;;;;;4.55;3.70;;;17.70;82.40;;;;;;6032527;23;20391;-78
2023/05/30 03:56:11;;;;;;;3.75;3.25;;;17.80;82.70;;;;;;6030768;23;20396;-78
2023/05/30 03:58:38;;;;;;;4.85;3.22;;;17.70;83.00;;;;;;6032395;23;20473;-77
2023/05/30 04:01:05;;;;;;;4.00;3.42;;;17.70;84.20;;;;;;6026145;23;20386;-77
2023/05/30 04:03:32;;;;;;;4.35;3.38;;;17.70;83.40;;;;;;6003925;23;20394;-77
2023/05/30 04:05:59;;;;;;;4.50;3.42;;;17.70;83.30;;;;;;6027078;23;20766;-78
2023/05/30 04:08:26;;;;;;;3.83;3.42;;;17.70;83.80;;;;;;6004283;23;20414;-78
2023/05/30 04:10:53;;;;;;;4.90;3.60;;;17.70;82.00;;;;;;6026587;23;20724;-78
2023/05/30 04:13:20;;;;;;;4.25;3.33;;;17.80;82.60;;;;;;6026796;23;20382;-78
2023/05/30 04:15:47;;;;;;;5.38;3.78;;;17.80;81.80;;;;;;6003711;23;20387;-78
2023/05/30 04:18:14;;;;;;;6.25;3.83;;;17.80;81.10;;;;;;6002880;23;20410;-78
2023/05/30 04:20:41;;;;;;;4.87;3.23;;;17.90;79.60;;;;;;6003803;23;20391;-78
2023/05/30 04:23:08;;;;;;;4.93;3.70;;;18.00;79.10;;;;;;6002973;23;20428;-78
2023/05/30 04:25:35;;;;;;;4.03;3.63;;;18.00;78.70;;;;;;6003950;23;20390;-78
2023/05/30 04:28:05;;;;;;;5.03;3.33;;;18.00;79.10;;;;;;6002628;23;20724;-78
2023/05/30 04:30:35;;;;;;;4.97;3.73;;;18.00;80.30;;;;;;6003659;23;20437;-78
2023/05/30 04:33:02;;;;;;;4.30;3.35;;;18.00;78.60;;;;;;6025636;23;20720;-77
2023/05/30 04:35:30;;;;;;;4.22;3.50;;;18.10;79.00;;;;;;6003201;23;20397;-77
2023/05/30 04:37:58;;;;;;;5.90;4.03;;;18.10;79.80;;;;;;6002732;23;20418;-78
2023/05/30 04:40:27;;;;;;;3.67;3.35;;;18.10;79.80;;;;;;6004074;23;20760;-78
2023/05/30 04:42:58;;;;;;;5.78;3.40;;;18.10;80.40;;;;;;6026073;23;20390;-77
2023/05/30 04:45:28;;;;;;;4.57;3.60;;;18.00;79.40;;;;;;6005152;23;20386;-79
2023/05/30 04:47:56;;;;;;;4.28;3.63;;;18.10;79.20;;;;;;6004085;23;20386;-78
2023/05/30 04:50:24;;;;;;;3.67;3.05;;;18.10;79.60;;;;;;6003713;23;20378;-78
2023/05/30 04:52:51;;;;;;;5.00;3.60;;;18.10;80.20;;;;;;6003566;23;20853;-78
2023/05/30 04:55:19;;;;;;;6.50;4.13;;;18.00;79.50;;;;;;6002988;23;20757;-78
2023/05/30 04:57:45;;;;;;;4.80;3.53;;;18.10;79.70;;;;;;6003040;23;20390;-78
2023/05/30 05:00:16;;;;;;;6.13;3.60;;;18.10;79.80;;;;;;6007223;23;20395;-78
2023/05/30 05:02:44;;;;;;;4.53;3.83;;;18.10;79.30;;;;;;6026552;23;20389;-78
2023/05/30 05:05:11;;;;;;;4.72;4.10;;;18.00;79.50;;;;;;6003671;23;20447;-77
2023/05/30 05:07:38;;;;;;;4.72;3.30;;;18.10;79.40;;;;;;6026968;23;20461;-78
2023/05/30 05:10:09;;;;;;;4.10;3.50;;;18.10;79.80;;;;;;6025362;23;20389;-77
2023/05/30 05:12:36;;;;;;;5.40;3.75;;;18.10;80.90;;;;;;6050633;23;20395;-78
2023/05/30 05:15:05;;;;;;;4.88;3.60;;;18.10;80.10;;;;;;6025338;23;20386;-78
2023/05/30 05:17:32;;;;;;;4.78;3.78;;;18.10;80.90;;;;;;6049796;23;20776;-78
2023/05/30 05:20:00;;;;;;;5.25;3.67;;;18.20;79.60;;;;;;6003210;23;20390;-77
2023/05/30 05:22:31;;;;;;;4.65;3.25;;;18.20;79.20;;;;;;6004716;23;20386;-78
2023/05/30 05:24:58;;;;;;;4.00;3.60;;;18.20;80.00;;;;;;6025570;23;20386;-78
2023/05/30 05:27:27;;;;;;;4.60;3.80;;;18.20;78.10;;;;;;6026686;23;20438;-78
2023/05/30 05:29:54;;;;;;;5.43;3.85;;;18.30;78.80;;;;;;6026616;23;20386;-78
2023/05/30 05:32:21;;;;;;;6.20;4.05;;;18.30;77.80;;;;;;6026189;23;20386;-78
2023/05/30 05:34:48;;;;;;;4.47;3.47;;;18.40;77.70;;;;;;6026983;23;20387;-79
2023/05/30 05:37:15;;;;;;;4.22;3.53;;;18.40;77.20;;;;;;6025540;23;20748;-79
2023/05/30 05:39:42;;;;;;;5.93;3.70;;;18.40;77.20;;;;;;6026471;23;20390;-78
2023/05/30 05:42:09;;;;;;;4.32;3.50;;;18.40;75.90;;;;;;6025961;23;20442;-79
2023/05/30 05:44:36;;;;;;;5.35;3.85;;;18.40;77.40;;;;;;6026572;23;20390;-78
2023/05/30 05:47:03;;;;;;;3.70;3.40;;;18.40;77.40;;;;;;6025463;23;20758;-78
2023/05/30 05:49:30;;;;;;;4.25;3.72;;;18.40;77.40;;;;;;6026573;23;20465;-78
2023/05/30 05:51:57;;;;;;;4.70;3.67;;;18.40;78.10;;;;;;6026265;23;20397;-79
2023/05/30 05:54:25;;;;;;;5.72;4.05;;;18.40;78.20;;;;;;6025413;23;20465;-77
2023/05/30 05:56:52;;;;;;;5.60;4.15;;;18.50;77.70;;;;;;6004504;23;20406;-78
2023/05/30 05:59:19;;;;;;;5.50;3.70;;;18.50;78.40;;;;;;6025346;23;20450;-78
2023/05/30 06:01:46;;;;;;;4.88;3.78;;;18.50;78.60;;;;;;6024783;23;20442;-78
2023/05/30 06:04:13;;;;;;;6.35;3.80;;;18.60;78.90;;;;;;6001123;23;20382;-78
2023/05/30 06:06:40;;;;;;;5.97;3.72;;;18.70;76.00;;;;;;6026974;23;20460;-78
2023/05/30 06:09:07;;;;;;;4.47;4.05;;;18.80;75.60;;;;;;6025138;23;20398;-79
2023/05/30 06:11:34;;;;;;;4.72;3.78;;;18.80;76.20;;;;;;6026303;23;20409;-78
2023/05/30 06:14:01;;;;;;;5.60;3.45;;;18.90;75.20;;;;;;6026325;23;20727;-79
2023/05/30 06:16:28;;;;;;;4.43;3.28;;;19.00;74.40;;;;;;6026123;23;20388;-79
2023/05/30 06:18:55;;;;;;;6.03;4.07;;;19.10;75.20;;;;;;6026283;23;20434;-79
2023/05/30 06:21:21;;;;;;;4.07;3.67;;;19.20;76.90;;;;;;6025701;23;20438;-79
2023/05/30 06:23:48;;;;;;;5.68;4.00;;;19.30;73.80;;;;;;6026024;23;20386;-78
2023/05/30 06:26:15;;;;;;;5.68;3.70;;;19.30;71.30;;;;;;6025507;23;20378;-77
2023/05/30 06:28:42;;;;;;;6.15;3.90;;;19.40;69.40;;;;;;6026259;23;20439;-79
2023/05/30 06:31:09;;;;;;;5.17;4.10;;;19.50;70.10;;;;;;6025188;23;20386;-79
2023/05/30 06:33:36;;;;;;;4.88;3.53;;;19.60;69.30;;;;;;6026171;23;20442;-78
2023/05/30 06:36:03;;;;;;;5.13;3.70;;;19.70;69.90;;;;;;6026026;23;20774;-78
2023/05/30 06:38:30;;;;;;;6.90;4.10;;;19.80;69.70;;;;;;6025510;23;20418;-79
2023/05/30 06:40:57;;;;;;;4.07;3.50;;;19.90;70.20;;;;;;6025895;23;20386;-78
2023/05/30 06:43:24;;;;;;;5.80;4.18;;;19.90;70.40;;;;;;6025558;23;20725;-78
2023/05/30 06:45:51;;;;;;;5.68;4.13;;;20.00;69.60;;;;;;6025730;23;20505;-78
2023/05/30 06:48:18;;;;;;;6.03;3.83;;;20.10;72.10;;;;;;6025440;23;20386;-79
2023/05/30 06:50:45;;;;;;;6.05;3.85;;;20.20;71.80;;;;;;6025855;23;21019;-78
2023/05/30 06:53:12;;;;;;;4.80;3.63;;;20.30;69.80;;;;;;6025518;23;20386;-79
2023/05/30 06:55:39;;;;;;;5.38;3.83;;;20.40;71.00;;;;;;6025957;23;20698;-78
2023/05/30 06:58:06;;;;;;;4.93;4.00;;;20.50;69.50;;;;;;6005260;23;20393;-79
2023/05/30 07:00:33;;;;;;;4.63;3.95;;;20.60;68.10;;;;;;6027032;23;20442;-79
2023/05/30 07:03:02;;;;;;;4.43;3.50;;;20.70;68.00;;;;;;6004459;23;20774;-78
2023/05/30 07:05:29;;;;;;;4.47;3.80;;;20.80;68.40;;;;;;6026559;23;20449;-78
2023/05/30 07:07:56;;;;;;;4.30;3.70;;;20.90;69.60;;;;;;6027954;23;20386;-79
2023/05/30 07:10:23;;;;;;;4.28;3.40;;;21.10;67.00;;;;;;6027764;23;20717;-79
2023/05/30 07:12:52;;;;;;;5.55;4.13;;;21.20;65.50;;;;;;6027667;23;20386;-78
2023/05/30 07:15:19;;;;;;;4.33;3.60;;;21.20;66.30;;;;;;6005073;23;20394;-78
2023/05/30 07:17:46;;;;;;;5.78;3.78;;;21.30;64.50;;;;;;6027886;23;20401;-79
2023/05/30 07:20:14;;;;;;;5.90;3.40;;;21.40;62.90;;;;;;6004464;23;20390;-79
2023/05/30 07:22:41;;;;;;;3.95;3.55;;;21.50;63.70;;;;;;6027907;23;20438;-79
2023/05/30 07:25:08;;;;;;;4.25;2.92;;;21.60;62.00;;;;;;6027511;23;20393;-79
2023/05/30 07:27:35;;;;;;;4.35;3.72;;;21.70;62.50;;;;;;6027273;23;20414;-78
2023/05/30 07:30:02;;;;;;;4.32;3.78;;;21.80;62.90;;;;;;6028015;23;20386;-79
2023/05/30 07:32:29;;;;;;;4.88;3.50;;;22.00;61.00;;;;;;6027019;23;20391;-79
2023/05/30 07:34:56;;;;;;;4.68;3.15;;;22.00;61.00;;;;;;6027757;23;20424;-79
2023/05/30 07:37:23;;;;;;;5.10;3.57;;;22.10;61.80;;;;;;6027018;23;20473;-79
2023/05/30 07:39:50;;;;;;;4.13;3.17;;;22.20;62.40;;;;;;6027218;23;20754;-78
2023/05/30 07:42:17;;;;;;;7.43;3.75;;;22.40;61.60;;;;;;6003417;23;20390;-79
2023/05/30 07:44:44;;;;;;;4.88;3.50;;;22.50;61.60;;;;;;6006042;23;20462;-79
2023/05/30 07:47:10;;;;;;;3.40;3.10;;;22.70;61.60;;;;;;6027306;23;20411;-78
2023/05/30 07:49:37;;;;;;;3.53;3.00;;;22.90;61.20;;;;;;6027180;23;20446;-79
2023/05/30 07:52:04;;;;;;;4.95;3.38;;;23.00;60.30;;;;;;6027900;23;20390;-79
2023/05/30 07:54:31;;;;;;;4.53;3.20;;;23.20;62.20;;;;;;6026520;23;20840;-79
2023/05/30 07:56:58;;;;;;;4.50;3.28;;;23.50;64.60;;;;;;6027352;23;20393;-78
2023/05/30 07:59:25;;;;;;;3.83;3.20;;;23.70;63.90;;;;;;6026609;23;20386;-79
2023/05/30 08:01:52;;;;;;;4.83;3.50;;;23.80;61.80;;;;;;6037353;23;20383;-79
2023/05/30 08:04:19;;;;;;;3.67;3.38;;;23.90;58.40;;;;;;6036066;23;20784;-79
2023/05/30 08:06:46;;;;;;;5.40;3.65;;;23.90;60.00;;;;;;6036808;23;20687;-79
2023/05/30 08:09:13;;;;;;;4.88;4.38;;;24.00;60.20;;;;;;6037358;23;20384;-78
2023/05/30 08:11:40;;;;;;;4.70;4.15;;;23.90;59.10;;;;;;6035630;23;20439;-79
2023/05/30 08:14:06;;;;;;;5.53;4.72;;;23.90;59.60;;;;;;6037304;23;20442;-79
2023/05/30 08:16:34;;;;;;;6.70;4.05;;;23.90;56.80;;;;;;6035563;23;20379;-79
2023/05/30 08:19:01;;;;;;;4.85;3.83;;;23.90;57.50;;;;;;6060781;23;20411;-79
2023/05/30 08:21:28;;;;;;;4.05;3.35;;;24.00;54.30;;;;;;6060925;23;20438;-79
2023/05/30 08:23:55;;;;;;;4.15;3.72;;;24.10;56.20;;;;;;6037116;23;20387;-79
2023/05/30 08:26:30;;;;;;;6.40;3.95;;;24.20;55.60;;;;;;6036933;23;20391;-79
2023/05/30 08:28:57;;;;;;;4.32;3.90;;;24.20;55.30;;;;;;6062104;23;20387;-79
2023/05/30 08:31:24;;;;;;;4.93;4.43;;;24.30;56.30;;;;;;6036149;23;20844;-79
2023/05/30 08:33:51;;;;;;;5.43;4.45;;;24.40;56.90;;;;;;6036840;23;20387;-79
2023/05/30 08:36:21;;;;;;;6.97;4.90;;;24.50;56.80;;;;;;6035674;23;20383;-79
2023/05/30 08:38:53;;;;;;;5.25;4.53;;;24.60;56.30;;;;;;6037125;23;20876;-79
2023/05/30 08:41:39;;;;;;;7.38;5.85;;;24.50;56.10;;;;;;6040303;23;20774;-79
2023/05/30 08:44:06;;;;;;;6.22;5.63;;;24.60;57.10;;;;;;6036894;23;20385;-79
2023/05/30 08:46:35;;;;;;;6.70;5.57;;;24.60;57.50;;;;;;6036266;23;20745;-79
2023/05/30 08:49:03;;;;;;;7.35;6.07;;;24.60;57.80;;;;;;6036372;23;20718;-79
2023/05/30 08:51:32;;;;;;;6.45;5.63;;;24.80;58.60;;;;;;6036004;23;20383;-79
2023/05/30 08:54:02;;;;;;;7.50;6.80;;;25.00;57.20;;;;;;6061545;23;20386;-78
2023/05/30 08:56:34;;;;;;;8.30;6.90;;;25.20;58.00;;;;;;6035843;23;20761;-78
2023/05/30 08:59:04;;;;;;;7.47;6.78;;;25.20;57.60;;;;;;6035843;23;20398;-79
2023/05/30 09:01:31;;;;;;;7.70;7.00;;;25.20;58.60;;;;;;6034972;23;20402;-79
2023/05/30 09:03:58;;;;;;;7.95;6.72;;;25.20;60.10;;;;;;6060267;23;20844;-79
2023/05/30 09:06:26;;;;;;;7.70;6.90;;;25.30;59.50;;;;;;6035580;23;20387;-79
2023/05/30 09:08:54;;;;;;;7.60;6.90;;;25.30;60.50;;;;;;6036406;23;20379;-79
2023/05/30 09:11:21;;;;;;;8.77;7.13;;;25.50;60.00;;;;;;6059492;23;20379;-79
2023/05/30 09:13:48;;;;;;;8.18;6.10;;;25.50;58.60;;;;;;6036126;23;20709;-79
2023/05/30 09:16:15;;;;;;;8.70;6.32;;;25.50;57.90;;;;;;6037015;23;20920;-79
2023/05/30 09:18:42;;;;;;;10.15;6.97;;;25.50;58.50;;;;;;6035526;23;20383;-79
2023/05/30 09:21:10;;;;;;;9.50;7.00;;;25.30;56.10;;;;;;6037096;23;20391;-79
2023/05/30 09:23:38;;;;;;;7.28;6.10;;;25.10;56.60;;;;;;6035652;23;20694;-79
2023/05/30 09:26:07;;;;;;;6.43;5.83;;;25.00;58.70;;;;;;6036554;23;20383;-80
2023/05/30 09:28:35;;;;;;;7.28;6.40;;;25.00;59.80;;;;;;6035120;23;20399;-79
2023/05/30 09:31:03;;;;;;;8.65;6.18;;;25.10;57.60;;;;;;6036043;23;20721;-80
2023/05/30 09:33:48;;;;;;;7.47;6.32;;;25.20;59.30;;;;;;6035320;23;20766;-79
2023/05/30 09:36:20;;;;;;;7.82;6.78;;;25.20;57.60;;;;;;6035973;23;20386;-79
2023/05/30 09:39:02;;;;;;;7.93;7.13;;;25.40;59.50;;;;;;6060743;23;20898;-79
2023/05/30 09:41:29;;;;;;;8.90;7.97;;;25.40;57.40;;;;;;6059835;23;20454;-79
2023/05/30 09:43:57;;;;;;;9.27;8.15;;;25.60;58.20;;;;;;6035004;23;20382;-79
2023/05/30 09:46:29;;;;;;;10.38;9.23;;;25.60;56.80;;;;;;6035544;23;20390;-80
2023/05/30 09:48:57;;;;;;;9.43;8.40;;;25.50;56.80;;;;;;6036538;23;20421;-80
2023/05/30 09:51:25;;;;;;;8.52;7.63;;;25.60;56.80;;;;;;6035460;23;20726;-80
2023/05/30 09:53:54;;;;;;;9.98;8.45;;;25.80;58.10;;;;;;6061038;23;20778;-79
2023/05/30 09:56:30;;;;;;;9.20;8.20;;;25.90;57.00;;;;;;6061219;23;20387;-79
2023/05/30 09:58:58;;;;;;;9.23;7.25;;;26.00;55.50;;;;;;6058813;23;20399;-79
2023/05/30 10:01:25;;;;;;;8.85;7.75;;;26.10;56.10;;;;;;6036211;23;20387;-79
2023/05/30 10:03:55;;;;;;;10.40;9.15;;;26.10;55.80;;;;;;6034498;23;20488;-79
2023/05/30 10:06:23;;;;;;;8.63;7.50;;;26.10;54.10;;;;;;6061365;23;20415;-79
2023/05/30 10:08:50;;;;;;;9.68;8.10;;;26.10;55.40;;;;;;6035052;23;20387;-79
2023/05/30 10:11:19;;;;;;;9.65;8.60;;;26.10;54.60;;;;;;6036775;23;20383;-79
2023/05/30 10:13:48;;;;;;;10.90;9.25;;;26.10;55.30;;;;;;6034871;23;20383;-78
2023/05/30 10:16:17;;;;;;;9.80;8.45;;;26.10;55.20;;;;;;6035762;23;20390;-79
2023/05/30 10:18:53;;;;;;;9.27;8.33;;;26.20;55.30;;;;;;6034771;23;20410;-79
2023/05/30 10:21:22;;;;;;;10.60;8.70;;;26.30;55.50;;;;;;6036016;23;20390;-78
2023/05/30 10:23:51;;;;;;;9.80;8.43;;;26.40;52.70;;;;;;6034469;23;20702;-79
2023/05/30 10:26:20;;;;;;;10.70;9.07;;;26.50;53.90;;;;;;6036074;23;20390;-79
2023/05/30 10:28:49;;;;;;;8.55;7.43;;;26.70;53.20;;;;;;6035858;23;20817;-79
2023/05/30 10:31:16;;;;;;;12.50;9.88;;;26.60;51.80;;;;;;6035086;23;20920;-79
2023/05/30 10:33:48;;;;;;;12.38;9.75;;;26.50;51.90;;;;;;6035419;23;20394;-79
2023/05/30 10:36:24;;;;;;;11.77;9.00;;;26.50;52.20;;;;;;6037549;23;20461;-79
2023/05/30 10:39:15;;;;;;;12.77;10.05;;;26.50;53.70;;;;;;6035373;23;20387;-79
2023/05/30 10:42:07;;;;;;;9.00;8.10;;;26.60;53.40;;;;;;6060473;23;20394;-79
2023/05/30 10:44:44;;;;;;;10.70;8.30;;;26.60;52.00;;;;;;6061055;23;20395;-79
2023/05/30 10:47:32;;;;;;;9.00;8.10;;;26.50;51.40;;;;;;6060402;23;20679;-79
2023/05/30 10:50:04;;;;;;;9.90;8.90;;;26.40;52.30;;;;;;6059050;23;20719;-79
2023/05/30 10:52:32;;;;;;;7.80;7.00;;;26.20;52.20;;;;;;6059038;23;20387;-77
2023/05/30 10:55:00;;;;;;;10.68;8.43;;;26.30;53.10;;;;;;6035427;23;20393;-80
2023/05/30 10:57:32;;;;;;;9.18;7.13;;;26.40;50.60;;;;;;6060788;23;20411;-79
2023/05/30 11:00:21;;;;;;;8.45;6.97;;;26.30;50.90;;;;;;6034791;23;20829;-80
2023/05/30 11:02:53;;;;;;;7.15;6.43;;;26.50;50.80;;;;;;6035097;23;20391;-80
2023/05/30 11:05:30;;;;;;;10.75;8.35;;;26.70;50.90;;;;;;6035928;23;20426;-80
2023/05/30 11:08:00;;;;;;;8.00;6.90;;;26.80;49.30;;;;;;6035365;23;20379;-79
2023/05/30 11:10:28;;;;;;;11.73;7.90;;;26.80;49.30;;;;;;6035937;23;20375;-79
2023/05/30 11:13:14;;;;;;;11.95;8.98;;;26.80;49.80;;;;;;6035256;23;20380;-79
2023/05/30 11:15:48;;;;;;;8.67;7.33;;;26.80;50.80;;;;;;6036012;23;20378;-79
2023/05/30 11:18:18;;;;;;;9.40;7.13;;;26.90;50.10;;;;;;6034916;23;20375;-79
2023/05/30 11:20:55;;;;;;;9.73;7.10;;;27.00;49.50;;;;;;6035789;23;20459;-79
2023/05/30 11:23:24;;;;;;;8.90;7.00;;;27.10;48.50;;;;;;6035365;23;20383;-79
2023/05/30 11:25:57;;;;;;;8.13;7.22;;;27.10;48.50;;;;;;6060947;23;20402;-79
2023/05/30 11:28:35;;;;;;;7.82;6.22;;;27.30;48.20;;;;;;6034837;23;20379;-79
2023/05/30 11:31:16;;;;;;;9.35;7.68;;;27.40;48.10;;;;;;6035216;23;20789;-80
2023/05/30 11:33:46;;;;;;;7.88;6.65;;;27.40;47.60;;;;;;6060068;23;20749;-79
2023/05/30 11:36:13;;;;;;;9.18;6.35;;;27.40;48.70;;;;;;6034592;23;20383;-79
2023/05/30 11:38:48;;;;;;;8.48;7.40;;;27.60;48.60;;;;;;6036045;23;20410;-79
2023/05/30 11:41:15;;;;;;;9.55;7.57;;;27.80;46.30;;;;;;6034936;23;20779;-80
2023/05/30 11:43:43;;;;;;;9.60;8.00;;;27.80;47.30;;;;;;6036576;23;20399;-79
2023/05/30 11:46:12;;;;;;;11.23;9.57;;;28.00;47.00;;;;;;6036638;23;20379;-77
2023/05/30 11:48:40;;;;;;;6.50;5.80;;;28.00;45.30;;;;;;6037696;23;20717;-80
2023/05/30 11:51:08;;;;;;;8.80;7.03;;;27.90;46.60;;;;;;6037010;23;20474;-77
2023/05/30 11:53:36;;;;;;;7.53;6.70;;;28.00;47.50;;;;;;6062492;23;20387;-77
2023/05/30 11:56:03;;;;;;;9.73;7.53;;;28.20;47.00;;;;;;6061304;23;20379;-78
2023/05/30 11:58:30;;;;;;;8.35;7.13;;;28.20;46.60;;;;;;6062554;23;20383;-78
2023/05/30 12:00:58;;;;;;;10.10;8.40;;;27.90;47.60;;;;;;6036859;23;20391;-79
2023/05/30 12:03:27;;;;;;;8.65;7.15;;;27.70;47.50;;;;;;6036570;23;20379;-77
2023/05/30 12:05:55;;;;;;;9.30;7.95;;;27.70;47.50;;;;;;6036925;23;20394;-79
2023/05/30 12:08:22;;;;;;;8.37;6.90;;;27.80;48.10;;;;;;6036424;23;20414;-77
2023/05/30 12:10:50;;;;;;;10.05;8.63;;;27.90;48.60;;;;;;6037423;23;20395;-77
2023/05/30 12:13:20;;;;;;;11.32;8.52;;;28.20;47.90;;;;;;6036052;23;20695;-77
2023/05/30 12:15:49;;;;;;;10.65;8.13;;;28.30;47.40;;;;;;6037382;23;20861;-77
2023/05/30 12:18:17;;;;;;;9.13;7.68;;;28.50;46.70;;;;;;6035706;23;20390;-78
2023/05/30 12:20:45;;;;;;;8.27;7.47;;;28.50;45.90;;;;;;6037355;23;20391;-78
2023/05/30 12:23:12;;;;;;;8.02;6.63;;;28.40;46.30;;;;;;6036443;23;20869;-79
2023/05/30 12:25:39;;;;;;;10.98;7.70;;;28.20;46.70;;;;;;6037042;23;20865;-77
2023/05/30 12:28:07;;;;;;;8.35;7.30;;;28.10;48.40;;;;;;6036035;23;20828;-77
2023/05/30 12:30:37;;;;;;;8.13;6.90;;;27.90;47.70;;;;;;6037228;23;20454;-77
2023/05/30 12:33:18;;;;;;;8.93;8.03;;;27.80;46.90;;;;;;6035896;23;20391;-79
2023/05/30 12:35:46;;;;;;;7.50;6.25;;;27.60;46.50;;;;;;6036919;23;20457;-76
2023/05/30 12:38:16;;;;;;;11.70;8.05;;;27.40;47.20;;;;;;6036446;23;20846;-77
2023/05/30 12:40:46;;;;;;;9.30;7.55;;;27.20;46.60;;;;;;6036827;23;20394;-77
2023/05/30 12:43:25;;;;;;;8.43;7.30;;;27.00;47.50;;;;;;6036339;23;20460;-77
2023/05/30 12:45:52;;;;;;;8.02;7.18;;;26.90;48.70;;;;;;6059856;23;20380;-77
2023/05/30 12:48:19;;;;;;;8.20;6.67;;;26.90;47.40;;;;;;6036308;23;20407;-77
2023/05/30 12:50:46;;;;;;;8.70;6.88;;;26.90;48.20;;;;;;6061318;23;20383;-78
2023/05/30 12:53:13;;;;;;;7.72;6.70;;;27.00;47.30;;;;;;6036342;23;20382;-79
2023/05/30 12:55:40;;;;;;;8.40;6.80;;;27.10;47.50;;;;;;6036797;23;20383;-77
2023/05/30 12:58:07;;;;;;;9.52;7.30;;;27.20;47.40;;;;;;6036886;23;20709;-78
2023/05/30 13:00:34;;;;;;;7.93;6.20;;;27.20;46.10;;;;;;6036521;23;20430;-77
2023/05/30 13:03:03;;;;;;;8.55;6.78;;;27.40;48.70;;;;;;6036906;23;20383;-77
2023/05/30 13:05:30;;;;;;;7.97;6.18;;;27.50;47.50;;;;;;6035509;23;20785;-77
2023/05/30 13:07:57;;;;;;;7.60;6.70;;;27.70;48.50;;;;;;6036883;23;20750;-78
2023/05/30 13:10:24;;;;;;;11.93;7.33;;;27.80;48.10;;;;;;6060957;23;20383;-78
2023/05/30 13:12:51;;;;;;;9.40;6.95;;;27.90;44.60;;;;;;6036475;23;20463;-79
2023/05/30 13:15:18;;;;;;;9.07;6.75;;;27.80;45.60;;;;;;6035880;23;20734;-77
2023/05/30 13:17:45;;;;;;;8.50;6.03;;;27.80;45.40;;;;;;6036657;23;20379;-77
2023/05/30 13:20:12;;;;;;;6.63;5.95;;;27.80;46.00;;;;;;6034873;23;20454;-78
2023/05/30 13:22:39;;;;;;;7.32;5.28;;;27.80;46.50;;;;;;6036518;23;20391;-78
2023/05/30 13:25:07;;;;;;;7.75;6.40;;;27.70;45.30;;;;;;6036261;23;20442;-77
2023/05/30 13:27:34;;;;;;;7.90;5.85;;;27.60;46.50;;;;;;6035891;23;20457;-78
2023/05/30 13:30:01;;;;;;;6.85;5.70;;;27.60;46.30;;;;;;6036125;23;20901;-78
2023/05/30 13:32:28;;;;;;;8.43;6.43;;;27.60;45.80;;;;;;6035844;23;20725;-78
2023/05/30 13:34:54;;;;;;;6.03;5.07;;;27.80;45.70;;;;;;6061643;23;20382;-78
2023/05/30 13:37:22;;;;;;;7.53;5.88;;;28.00;47.20;;;;;;6035659;23;20383;-78
2023/05/30 13:39:49;;;;;;;6.43;5.68;;;28.30;46.20;;;;;;6036510;23;20762;-78
2023/05/30 13:42:16;;;;;;;5.22;4.72;;;28.70;45.50;;;;;;6034952;23;20387;-78
2023/05/30 13:44:43;;;;;;;6.05;5.28;;;29.00;44.30;;;;;;6036375;23;20411;-78
2023/05/30 13:47:10;;;;;;;6.27;5.30;;;29.10;43.60;;;;;;6036453;23;20379;-78
2023/05/30 13:49:38;;;;;;;7.97;6.47;;;29.20;42.90;;;;;;6059708;23;20394;-77
2023/05/30 13:52:05;;;;;;;5.68;4.97;;;29.20;41.60;;;;;;6036106;23;20393;-78
2023/05/30 13:54:32;;;;;;;7.00;6.25;;;29.20;42.80;;;;;;6035555;23;20873;-78
2023/05/30 13:56:59;;;;;;;6.38;5.38;;;29.40;42.20;;;;;;6036677;23;20778;-78
2023/05/30 13:59:26;;;;;;;6.87;6.17;;;29.60;42.20;;;;;;6035369;23;20577;-77
2023/05/30 14:01:54;;;;;;;6.40;5.50;;;29.80;41.70;;;;;;6036747;23;20464;-77
2023/05/30 14:04:21;;;;;;;5.43;4.93;;;29.90;41.30;;;;;;6034790;23;20418;-77
2023/05/30 14:06:50;;;;;;;8.35;5.28;;;30.00;41.10;;;;;;6035949;23;20395;-77
2023/05/30 14:09:21;;;;;;;6.30;5.70;;;30.00;41.00;;;;;;6035203;23;20387;-78
2023/05/30 14:11:49;;;;;;;6.55;4.93;;;29.80;42.00;;;;;;6035921;23;20765;-78
2023/05/30 14:14:17;;;;;;;7.95;6.18;;;29.70;41.00;;;;;;6060821;23;20710;-78
2023/05/30 14:16:44;;;;;;;7.53;5.80;;;29.60;41.00;;;;;;6035475;23;20403;-77
2023/05/30 14:19:12;;;;;;;5.82;5.15;;;29.20;42.70;;;;;;6035228;23;20391;-78
2023/05/30 14:21:39;;;;;;;6.22;5.63;;;29.30;42.90;;;;;;6033300;23;20383;-77
2023/05/30 14:24:07;;;;;;;4.97;4.47;;;29.40;42.60;;;;;;6035797;23;20405;-78
2023/05/30 14:26:34;;;;;;;6.82;6.10;;;29.40;43.00;;;;;;6059010;23;20383;-77
2023/05/30 14:29:03;;;;;;;7.10;6.22;;;29.40;42.20;;;;;;6035991;23;20391;-77
2023/05/30 14:31:30;;;;;;;6.80;5.55;;;29.40;42.90;;;;;;6060073;23;20387;-78
2023/05/30 14:33:58;;;;;;;6.40;5.45;;;29.40;42.70;;;;;;6035984;23;20845;-78
2023/05/30 14:36:25;;;;;;;6.65;5.05;;;29.60;41.60;;;;;;6035179;23;20929;-78
2023/05/30 14:38:52;;;;;;;7.00;5.75;;;29.60;41.40;;;;;;6036582;23;20379;-78
2023/05/30 14:41:19;;;;;;;6.70;5.68;;;29.60;41.80;;;;;;6034953;23;20800;-78
2023/05/30 14:43:46;;;;;;;6.25;5.35;;;29.70;41.80;;;;;;6035712;23;20489;-78
2023/05/30 14:46:13;;;;;;;8.65;6.80;;;29.80;41.50;;;;;;6034904;23;20383;-78
2023/05/30 14:48:42;;;;;;;6.20;4.93;;;30.00;41.50;;;;;;6035076;23;20386;-78